This is the latest recevied weather packets stored in our database for station/object OE3MHU-12. If no packets are shown the sender has not sent any weather packets the latest 10 day(s).
| Time | Temp. | Humidity | Pressure | Rain* | Wind** | Luminosity | Snow |
|---|---|---|---|---|---|---|---|
| 1777649152 | 21.11° C | 36% | 1026.5 hPa | 0 mm | - | - | - |
| 1777647352 | 20.56° C | 37% | 1026.7 hPa | 0 mm | - | - | - |
| 1777643753 | 20° C | 41% | 1027.3 hPa | 0 mm | - | - | - |
| 1777641953 | 19.44° C | 43% | 1027.4 hPa | 0 mm | - | - | - |
| 1777640153 | 19.44° C | 43% | 1027.8 hPa | 0 mm | - | - | - |
| 1777638353 | 20° C | 39% | 1028.2 hPa | 0 mm | - | - | - |
| 1777634753 | 17.78° C | 45% | 1028.9 hPa | 0 mm | - | - | - |
| 1777632953 | 17.22° C | 42% | 1029.2 hPa | 0 mm | - | - | - |
| 1777631153 | 17.22° C | 43% | 1029.6 hPa | 0 mm | - | - | - |
| 1777629702 | 16.11° C | 45% | 1029.8 hPa | 0 mm | - | - | - |
| 1777627553 | 15.56° C | 46% | 1030.1 hPa | 0 mm | - | - | - |
| 1777625754 | 15° C | 46% | 1030.2 hPa | 0 mm | - | - | - |
| 1777623954 | 13.89° C | 45% | 1030.4 hPa | 0 mm | - | - | - |
| 1777622154 | 12.78° C | 48% | 1030.6 hPa | 0 mm | - | - | - |
| 1777620354 | 12.78° C | 51% | 1030.5 hPa | 0 mm | - | - | - |
| 1777618554 | 10.56° C | 54% | 1030.4 hPa | 0 mm | - | - | - |
| 1777616754 | 8.33° C | 59% | 1030.4 hPa | 0 mm | - | - | - |
| 1777614954 | 5° C | 67% | 1030.4 hPa | 0 mm | - | - | - |
| 1777613154 | 0.56° C | 78% | 1030.5 hPa | 0 mm | - | - | - |
| 1777611354 | -0.56° C | 78% | 1030.3 hPa | 0 mm | - | - | - |
| 1777609554 | -1.11° C | 78% | 1030.1 hPa | 0 mm | - | - | - |
| 1777607754 | -1.11° C | 78% | 1030.1 hPa | 0 mm | - | - | - |
| 1777605955 | -1.11° C | 78% | 1029.9 hPa | 0 mm | - | - | - |
| 1777604155 | -1.11° C | 77% | 1030.1 hPa | 0 mm | - | - | - |
| 1777602355 | -0.56° C | 76% | 1030.2 hPa | 0 mm | - | - | - |
* Rain latest hour (hover to see other rain measurements)
** Current wind speed in m/s (hover to see current wind gust speed)